This is the latest recevied weather packets stored in our database for station/object KE0FIN. If no packets are shown the sender has not sent any weather packets the latest 1 day(s).
| Time | Temp. | Humidity | Pressure | Rain* | Wind** | Luminosity | Snow |
|---|---|---|---|---|---|---|---|
| 1836274685 | 22.22° C | 69% | 1066.2 hPa | 0 mm | 0 m/s | 0 W/m² | - |
| 1836274538 | 22.22° C | 72% | 1066.2 hPa | 0 mm | 0 m/s | 0 W/m² | - |
| 1836274383 | 22.22° C | 68% | 1066.6 hPa | 0 mm | 0 m/s | 0 W/m² | - |
| 1836274236 | 22.22° C | 71% | 1066.3 hPa | 0 mm | 0 m/s | 0 W/m² | - |
| 1836274081 | 22.22° C | 68% | 1066.5 hPa | 0 mm | 0 m/s | 0 W/m² | - |
| 1778036899 | 8.33° C | 82% | 1065.8 hPa | 0 mm | 0 m/s | 0 W/m² | - |
| 1778036597 | 7.78° C | 93% | 1065.8 hPa | 0 mm | 0 m/s | 0 W/m² | - |
| 1778036293 | 8.33° C | 97% | 1066 hPa | 0 mm | 0 m/s | 0 W/m² | - |
| 1778035990 | 8.33° C | 98% | 1065.9 hPa | 0 mm | 0 m/s | 0 W/m² | - |
| 1778035687 | 8.89° C | 98% | 1065.7 hPa | 0 mm | 0 m/s | 0 W/m² | - |
| 1778035384 | 8.89° C | 98% | 1065.7 hPa | 0 mm | 0 m/s | 0 W/m² | - |
| 1778035080 | 8.89° C | 97% | 1065.8 hPa | 0 mm | 0 m/s | 0 W/m² | - |
| 1778034777 | 8.89° C | 97% | 1065.6 hPa | 0 mm | 0 m/s | 0 W/m² | - |
| 1778034473 | 8.89° C | 97% | 1065.7 hPa | 0 mm | 0 m/s | 0 W/m² | - |
| 1778034172 | 8.89° C | 96% | 1065.5 hPa | 0 mm | 0 m/s | 0 W/m² | - |
| 1778033869 | 8.89° C | 96% | 1065.5 hPa | 0 mm | 0 m/s | 0 W/m² | - |
| 1778033566 | 8.89° C | 96% | 1065.4 hPa | 0 mm | 0 m/s | 0 W/m² | - |
| 1778033263 | 8.89° C | 96% | 1065.4 hPa | 0 mm | 0 m/s | 0 W/m² | - |
| 1778032961 | 8.89° C | 95% | 1065.5 hPa | 0 mm | 0 m/s | 0 W/m² | - |
| 1778032658 | 8.89° C | 95% | 1065.2 hPa | 0 mm | 0 m/s | 0 W/m² | - |
| 1778032355 | 8.89° C | 95% | 1065.3 hPa | 0 mm | 0 m/s | 0 W/m² | - |
| 1778032052 | 8.89° C | 94% | 1065.1 hPa | 0 mm | 0 m/s | 0 W/m² | - |
| 1778031748 | 8.89° C | 93% | 1065 hPa | 0 mm | 0 m/s | 0 W/m² | - |
| 1778031446 | 8.89° C | 93% | 1064.8 hPa | 0 mm | 0 m/s | 0 W/m² | - |
| 1778031144 | 8.89° C | 93% | 1064.8 hPa | 0 mm | 0 m/s | 0 W/m² | - |
* Rain latest hour (hover to see other rain measurements)
** Current wind speed in m/s (hover to see current wind gust speed)